Quick Links (Output Below):   Max & Min Temps   /   Climate Reports   /   Zone Forecasts
River Forecasts   /   Forestry Forecasts   /   Aviation Forecasts   /   Radars   /   Features

Terminal Aerodrome Forecast (Fayetteville)

Pick a Site:
Arkadelphia | El Dorado | Fayetteville | Fort Smith | Harrison | Highfill | Hot Springs | Jonesboro
Little Rock | Monticello | Mountain Home | Pine Bluff | Texarkana

KFYV 280340Z 2804/2824 01008KT P6SM -RA OVC009
     FM280700 01003KT 4SM -RA BR OVC005
     FM282000 36004KT 2SM -RA BR OVC007
     FM282200 01003KT 1 1/2SM -DZ BR OVC007=

 Latest METARs (Observations) 
How to Decode METARs
04Z KFYV 280353Z 06008KT 10SM -RA BKN010 BKN055 OVC100 04/03 A3024 RMK
         AO2 SLP242 P0002 T00390033
03Z KFYV 280253Z VRB03KT 10SM -RA BKN010 OVC110 04/04 A3026 RMK AO2
         SLP252 P0005 60010 T00390039 51001
02Z KFYV 280153Z 04005KT 10SM -RA OVC009 04/04 A3027 RMK AO2 SLP253
         P0002 T00390039
01Z KFYV 280053Z 02003KT 10SM -RA BKN010 BKN015 OVC100 03/03 A3026 RMK
         AO2 SLP250 P0003 T00330033
00Z KFYV 272353Z 02005KT 10SM -RA BKN010 OVC017 03/03 A3026 RMK AO2
         SLP249 P0009 60076 T00330033 10050 20033 51017
***** Today's Observations (Above) *****

23Z KFYV 272253Z 01009KT 5SM RA BR OVC008 03/03 A3024 RMK AO2 CIG
         005V013 SLP242 P0007 T00330033
22Z KFYV 272153Z 35008KT 5SM RA BR BKN008 BKN012 OVC022 04/04 A3023
         RMK AO2 SLP237 P0011 T00390039
21Z KFYV 272053Z 36005KT 4SM -RA BR BKN008 OVC024 04/04 A3021 RMK AO2
         SLP228 P0008 60049 T00390039 56006
20Z KFYV 271953Z 34007KT 3SM -RA BR BKN007 OVC030 05/05 A3022 RMK AO2
         SLP230 P0018 T00500050
19Z KFYV 271853Z 06004KT 2SM RA BR SCT006 OVC023 04/04 A3022 RMK AO2
         SLP231 P0023 T00440044
***** Yesterday's Observations (Above) *****

Back to Main Page

USA.gov is the U.S. government's official web portal to all federal, state and local government web resources and services.